createdAt,value
2018-09-27T00:01:45.766Z,12.55
2018-09-27T00:04:14.169Z,12.54
2018-09-27T00:06:42.649Z,12.46
2018-09-27T00:09:11.053Z,12.48
2018-09-27T00:11:39.494Z,12.42
2018-09-27T00:14:07.963Z,12.43
2018-09-27T00:16:36.389Z,12.44
2018-09-27T00:19:05.050Z,12.38
2018-09-27T00:21:33.488Z,12.35
2018-09-27T00:24:01.915Z,12.34
2018-09-27T00:26:30.359Z,12.26
2018-09-27T00:28:58.771Z,12.28
2018-09-27T00:31:27.162Z,12.29
2018-09-27T00:33:55.598Z,12.27
2018-09-27T00:36:24.019Z,12.30
2018-09-27T00:38:52.463Z,12.22
2018-09-27T00:41:20.864Z,12.13
2018-09-27T00:43:49.306Z,12.14
2018-09-27T00:46:24.379Z,12.10
2018-09-27T00:48:52.803Z,12.05
2018-09-27T00:51:21.237Z,11.97
2018-09-27T00:53:49.649Z,11.99
2018-09-27T00:56:18.046Z,11.93
2018-09-27T00:58:46.461Z,11.95
2018-09-27T01:01:14.857Z,11.95
2018-09-27T01:03:43.297Z,12.04
2018-09-27T01:06:11.705Z,12.12
2018-09-27T01:08:40.163Z,12.19
2018-09-27T01:11:08.573Z,12.26
2018-09-27T01:13:36.996Z,12.41
2018-09-27T01:16:05.407Z,12.48
2018-09-27T01:18:33.963Z,12.41
2018-09-27T01:21:02.522Z,12.42
2018-09-27T01:23:30.930Z,12.44
2018-09-27T01:25:59.426Z,12.43
2018-09-27T01:28:27.828Z,12.37
2018-09-27T01:30:56.269Z,12.36
2018-09-27T01:33:24.675Z,12.39
2018-09-27T01:35:53.133Z,12.51
2018-09-27T01:38:21.530Z,12.54
2018-09-27T01:40:49.978Z,12.43
2018-09-27T01:43:18.422Z,12.45
2018-09-27T01:45:46.845Z,12.50
2018-09-27T01:48:15.475Z,12.52
2018-09-27T01:50:43.941Z,12.57
2018-09-27T01:53:12.338Z,12.56
2018-09-27T01:55:40.774Z,12.57
2018-09-27T01:58:09.186Z,12.52
2018-09-27T02:00:37.642Z,12.60
2018-09-27T02:03:06.073Z,12.60
2018-09-27T02:05:34.517Z,12.62
2018-09-27T02:08:02.918Z,12.73
2018-09-27T02:10:31.362Z,12.71
2018-09-27T02:12:59.772Z,12.70
2018-09-27T02:15:28.166Z,12.67
2018-09-27T02:17:56.616Z,12.62
2018-09-27T02:20:25.025Z,12.71
2018-09-27T02:22:53.637Z,12.64
2018-09-27T02:25:22.058Z,12.70
2018-09-27T02:27:50.481Z,12.64
2018-09-27T02:30:18.878Z,12.62
2018-09-27T02:32:47.313Z,12.70
2018-09-27T02:35:15.713Z,12.79
2018-09-27T02:37:44.167Z,12.76
2018-09-27T02:40:12.579Z,12.75
2018-09-27T02:42:41.005Z,12.75
2018-09-27T02:45:09.448Z,12.69
2018-09-27T02:47:37.882Z,12.63
2018-09-27T02:50:06.349Z,12.61
2018-09-27T02:52:34.813Z,12.70
2018-09-27T02:55:03.648Z,12.75
2018-09-27T02:57:32.086Z,12.63
2018-09-27T03:00:00.504Z,12.76
2018-09-27T03:02:28.973Z,12.68
2018-09-27T03:04:57.382Z,12.63
2018-09-27T03:07:25.797Z,12.59
2018-09-27T03:09:54.239Z,12.56
2018-09-27T03:12:22.628Z,12.55
2018-09-27T03:14:51.054Z,12.50
2018-09-27T03:17:19.445Z,12.51
2018-09-27T03:19:54.469Z,12.50
2018-09-27T03:22:22.863Z,12.55
2018-09-27T03:24:51.298Z,12.56
2018-09-27T03:27:19.709Z,12.60
2018-09-27T03:29:48.137Z,12.75
2018-09-27T03:32:16.612Z,12.75
2018-09-27T03:34:45.130Z,12.71
2018-09-27T03:37:13.565Z,12.75
2018-09-27T03:39:42.037Z,12.76
2018-09-27T03:42:10.485Z,12.63
2018-09-27T03:44:38.957Z,12.51
2018-09-27T03:47:07.396Z,12.54
2018-09-27T03:49:35.866Z,12.57
2018-09-27T03:52:04.307Z,12.49
2018-09-27T03:54:32.746Z,12.43
2018-09-27T03:57:01.975Z,12.34
2018-09-27T03:59:30.663Z,12.33
2018-09-27T04:01:59.050Z,12.36
2018-09-27T04:04:27.501Z,12.22
2018-09-27T04:06:55.932Z,12.11
2018-09-27T04:09:24.325Z,12.13
2018-09-27T04:11:52.763Z,11.99
2018-09-27T04:14:21.162Z,11.93
2018-09-27T04:16:49.619Z,11.82
2018-09-27T04:19:18.042Z,11.78
2018-09-27T04:21:46.542Z,11.76
2018-09-27T04:24:14.916Z,11.77
2018-09-27T04:26:43.350Z,11.80
2018-09-27T04:29:11.754Z,11.90
2018-09-27T04:31:40.206Z,11.76
2018-09-27T04:34:08.799Z,11.65
2018-09-27T04:36:37.279Z,11.49
2018-09-27T04:39:08.725Z,11.44
2018-09-27T04:41:37.282Z,11.39
2018-09-27T04:44:05.674Z,11.42
2018-09-27T04:46:34.112Z,11.46
2018-09-27T04:49:02.967Z,11.42
2018-09-27T04:51:31.425Z,11.41
2018-09-27T04:53:59.798Z,11.34
2018-09-27T04:56:28.222Z,11.36
2018-09-27T04:58:56.593Z,11.38
2018-09-27T05:01:25.009Z,11.57
2018-09-27T05:03:53.482Z,11.64
2018-09-27T05:06:21.902Z,11.73
2018-09-27T05:08:50.330Z,11.87
2018-09-27T05:11:18.717Z,11.80
2018-09-27T05:13:47.126Z,11.84
2018-09-27T05:16:15.511Z,11.82
2018-09-27T05:18:44.045Z,11.80
2018-09-27T05:21:12.441Z,11.76
2018-09-27T05:23:40.851Z,11.78
2018-09-27T05:26:09.238Z,11.74
2018-09-27T05:28:37.650Z,11.84
2018-09-27T05:31:06.068Z,11.89
2018-09-27T05:33:34.553Z,11.86
2018-09-27T05:36:04.094Z,12.00
2018-09-27T05:38:32.582Z,12.06
2018-09-27T05:41:00.973Z,12.23
2018-09-27T05:43:29.381Z,12.08
2018-09-27T05:45:57.817Z,12.06
2018-09-27T05:48:26.281Z,11.96
2018-09-27T05:50:54.758Z,11.93
2018-09-27T05:53:23.218Z,11.85
2018-09-27T05:55:51.717Z,11.72
2018-09-27T05:58:20.097Z,11.70
2018-09-27T06:00:49.104Z,11.70
2018-09-27T06:03:17.623Z,11.63
2018-09-27T06:05:46.071Z,11.65
2018-09-27T06:08:14.477Z,11.69
2018-09-27T06:10:43.730Z,11.76
2018-09-27T06:13:12.169Z,11.89
2018-09-27T06:15:40.651Z,11.92
2018-09-27T06:18:09.061Z,12.01
2018-09-27T06:20:39.466Z,12.06
2018-09-27T06:23:07.858Z,12.16
2018-09-27T06:25:36.318Z,12.17
2018-09-27T06:28:04.734Z,12.31
2018-09-27T06:30:33.480Z,12.40
2018-09-27T06:33:01.960Z,12.45
2018-09-27T06:35:30.419Z,12.58
2018-09-27T06:37:58.834Z,12.63
2018-09-27T06:40:27.282Z,12.75
2018-09-27T06:42:55.674Z,12.83
2018-09-27T06:45:24.143Z,12.90
2018-09-27T06:47:52.623Z,12.97
2018-09-27T06:50:21.059Z,13.07
2018-09-27T06:52:49.573Z,13.14
2018-09-27T06:55:18.240Z,13.19
2018-09-27T06:57:46.423Z,13.32
2018-09-27T07:00:14.840Z,13.37
2018-09-27T07:02:43.333Z,13.50
2018-09-27T07:05:11.756Z,13.62
2018-09-27T07:07:40.193Z,13.72
2018-09-27T07:10:08.619Z,13.79
2018-09-27T07:12:37.101Z,13.78
2018-09-27T07:15:05.554Z,13.92
2018-09-27T07:17:33.989Z,14.08
2018-09-27T07:20:02.411Z,14.25
2018-09-27T07:22:30.848Z,14.39
2018-09-27T07:24:59.292Z,14.58
2018-09-27T07:27:27.794Z,14.76
2018-09-27T07:29:56.188Z,14.90
2018-09-27T07:32:24.629Z,15.08
2018-09-27T07:34:53.038Z,15.26
2018-09-27T07:37:21.509Z,15.41
2018-09-27T07:39:49.910Z,15.65
2018-09-27T07:42:18.367Z,15.90
2018-09-27T07:44:46.804Z,16.10
2018-09-27T07:47:15.233Z,16.23
2018-09-27T07:49:43.682Z,16.30
2018-09-27T07:52:12.166Z,16.41
2018-09-27T07:54:40.668Z,16.47
2018-09-27T07:57:09.330Z,16.61
2018-09-27T07:59:39.378Z,16.75
2018-09-27T08:02:07.881Z,16.79
2018-09-27T08:04:36.385Z,16.93
2018-09-27T08:07:04.829Z,17.12
2018-09-27T08:09:33.258Z,17.27
2018-09-27T08:12:02.026Z,17.34
2018-09-27T08:14:30.416Z,17.44
2018-09-27T08:16:58.917Z,17.51
2018-09-27T08:19:27.306Z,17.63
2018-09-27T08:21:55.718Z,17.70
2018-09-27T08:24:24.150Z,17.70
2018-09-27T08:26:52.553Z,17.95
2018-09-27T08:29:21.022Z,18.09
2018-09-27T08:31:49.446Z,18.18
2018-09-27T08:34:17.889Z,18.19
2018-09-27T08:36:46.294Z,18.21
2018-09-27T08:39:14.740Z,18.31
2018-09-27T08:41:43.166Z,18.56
2018-09-27T08:44:12.221Z,18.77
2018-09-27T08:46:41.647Z,18.79
2018-09-27T08:49:10.063Z,18.79
2018-09-27T08:51:38.754Z,18.61
2018-09-27T08:54:07.254Z,18.63
2018-09-27T08:56:35.705Z,18.81
2018-09-27T08:59:04.588Z,18.92
2018-09-27T09:01:33.032Z,19.07
2018-09-27T09:04:02.156Z,19.19
2018-09-27T09:06:30.611Z,19.28
2018-09-27T09:08:59.025Z,19.28
2018-09-27T09:11:27.459Z,19.22
2018-09-27T09:13:55.862Z,19.26
2018-09-27T09:16:24.306Z,19.35
2018-09-27T09:18:52.709Z,19.52
2018-09-27T09:21:21.145Z,19.49
2018-09-27T09:23:49.537Z,19.54
2018-09-27T09:26:17.973Z,19.60
2018-09-27T09:28:46.398Z,19.69
2018-09-27T09:31:14.863Z,19.71
2018-09-27T09:33:43.308Z,19.56
2018-09-27T09:36:12.006Z,19.64
2018-09-27T09:38:40.415Z,19.77
2018-09-27T09:41:08.811Z,19.91
2018-09-27T09:43:37.270Z,19.93
2018-09-27T09:46:05.726Z,20.03
2018-09-27T09:48:34.169Z,20.08
2018-09-27T09:51:03.482Z,20.09
2018-09-27T09:53:31.934Z,20.07
2018-09-27T09:56:00.345Z,20.03
2018-09-27T09:58:28.867Z,20.19
2018-09-27T10:00:57.294Z,20.33
2018-09-27T10:03:25.746Z,20.22
2018-09-27T10:05:54.151Z,20.02
2018-09-27T10:08:22.621Z,19.94
2018-09-27T10:10:51.034Z,19.98
2018-09-27T10:13:19.473Z,19.98
2018-09-27T10:15:47.883Z,20.05
2018-09-27T10:18:16.330Z,20.12
2018-09-27T10:20:44.773Z,20.07
2018-09-27T10:23:13.222Z,20.26
2018-09-27T10:25:41.658Z,20.36
2018-09-27T10:28:10.121Z,20.41
2018-09-27T10:30:38.551Z,20.45
2018-09-27T10:33:06.990Z,20.50
2018-09-27T10:35:35.447Z,20.61
2018-09-27T10:38:04.173Z,20.62
2018-09-27T10:40:32.989Z,20.69
2018-09-27T10:43:02.016Z,20.72
2018-09-27T10:45:30.466Z,20.77
2018-09-27T10:47:58.862Z,20.68
2018-09-27T10:50:27.354Z,20.61
2018-09-27T10:52:55.762Z,20.56
2018-09-27T10:55:24.198Z,20.55
2018-09-27T10:57:52.726Z,20.60
2018-09-27T11:00:28.012Z,20.66
2018-09-27T11:02:56.518Z,20.68
2018-09-27T11:05:25.020Z,20.68
2018-09-27T11:07:53.462Z,20.74
2018-09-27T11:10:21.990Z,20.78
2018-09-27T11:12:54.313Z,20.84
2018-09-27T11:15:27.749Z,20.76
2018-09-27T11:17:56.290Z,20.85
2018-09-27T11:20:24.738Z,20.88
2018-09-27T11:22:53.175Z,20.91
2018-09-27T11:25:21.634Z,20.84
2018-09-27T11:27:50.150Z,20.87
2018-09-27T11:30:23.978Z,20.87
2018-09-27T11:32:52.434Z,20.87
2018-09-27T11:35:20.882Z,20.78
2018-09-27T11:37:49.339Z,20.79
2018-09-27T11:40:17.766Z,20.78
2018-09-27T11:42:46.310Z,20.81
2018-09-27T11:45:15.724Z,20.81
2018-09-27T11:47:44.196Z,20.84
2018-09-27T11:50:12.686Z,20.81
2018-09-27T11:52:43.730Z,20.83
2018-09-27T11:55:12.787Z,20.92
2018-09-27T11:57:42.156Z,20.90
2018-09-27T12:00:10.610Z,20.86
2018-09-27T12:02:39.144Z,20.80
2018-09-27T12:05:07.660Z,20.82
2018-09-27T12:07:36.323Z,20.78
2018-09-27T12:10:04.764Z,20.76
2018-09-27T12:12:33.646Z,20.90
2018-09-27T12:15:02.663Z,20.86
2018-09-27T12:17:31.333Z,20.82
2018-09-27T12:19:59.960Z,20.76
2018-09-27T12:22:29.184Z,20.75
2018-09-27T12:24:58.189Z,20.72
2018-09-27T12:27:26.847Z,20.74
2018-09-27T12:29:56.238Z,20.70
2018-09-27T12:32:24.708Z,20.71
2018-09-27T12:34:53.318Z,20.74
2018-09-27T12:37:21.822Z,20.77
2018-09-27T12:39:50.313Z,20.78
2018-09-27T12:42:18.936Z,20.81
2018-09-27T12:44:47.336Z,20.80
2018-09-27T12:47:15.803Z,20.78
2018-09-27T12:49:45.331Z,20.81
2018-09-27T12:52:14.551Z,20.85
2018-09-27T12:54:42.796Z,20.90
2018-09-27T12:57:11.409Z,20.94
2018-09-27T12:59:40.569Z,21.00
2018-09-27T13:02:09.612Z,21.01
2018-09-27T13:04:38.134Z,21.07
2018-09-27T13:07:06.724Z,21.10
2018-09-27T13:09:36.037Z,21.14
2018-09-27T13:12:04.503Z,21.19
2018-09-27T13:14:33.659Z,21.25
2018-09-27T13:17:02.164Z,21.31
2018-09-27T13:19:31.450Z,21.36
2018-09-27T13:21:59.882Z,21.48
2018-09-27T13:24:28.440Z,21.56
2018-09-27T13:26:57.756Z,21.65
2018-09-27T13:29:27.441Z,21.75
2018-09-27T13:31:55.959Z,21.83
2018-09-27T13:34:24.490Z,21.92
2018-09-27T13:36:54.786Z,22.00
2018-09-27T13:39:23.302Z,22.09
2018-09-27T13:41:51.802Z,22.18
2018-09-27T13:44:20.225Z,22.33
2018-09-27T13:46:48.714Z,22.46
2018-09-27T13:49:17.763Z,22.62
2018-09-27T13:51:46.383Z,22.79
2018-09-27T13:54:21.438Z,22.94
2018-09-27T13:56:50.049Z,23.10
2018-09-27T13:59:18.482Z,23.23
2018-09-27T14:01:47.010Z,23.35
2018-09-27T14:04:15.505Z,23.47
2018-09-27T14:06:44.024Z,23.68
2018-09-27T14:09:12.534Z,23.90
2018-09-27T14:11:41.165Z,24.18
2018-09-27T14:14:09.660Z,24.42
2018-09-27T14:16:38.143Z,24.67
2018-09-27T14:19:06.650Z,24.96
2018-09-27T14:21:35.290Z,25.23
2018-09-27T14:24:03.749Z,25.45
2018-09-27T14:26:32.410Z,25.70
2018-09-27T14:29:00.920Z,25.93
2018-09-27T14:31:29.411Z,26.20
2018-09-27T14:33:58.904Z,26.41
2018-09-27T14:36:28.252Z,26.75
2018-09-27T14:38:56.855Z,27.07
2018-09-27T14:41:26.090Z,27.41
2018-09-27T14:43:54.538Z,27.60
2018-09-27T14:46:27.927Z,27.78
2018-09-27T14:49:03.504Z,28.04
2018-09-27T14:51:33.369Z,28.38
2018-09-27T14:54:02.713Z,28.67
2018-09-27T14:56:31.993Z,29.09
2018-09-27T14:59:01.211Z,29.90
2018-09-27T15:01:29.718Z,30.84
2018-09-27T15:03:59.617Z,32.42
2018-09-27T15:06:29.144Z,33.41
2018-09-27T15:08:58.299Z,35.20
2018-09-27T15:11:26.810Z,36.18
2018-09-27T15:13:56.470Z,36.35
2018-09-27T15:16:27.252Z,38.23
2018-09-27T15:18:56.472Z,39.07
2018-09-27T15:21:25.161Z,39.98
2018-09-27T15:23:55.373Z,41.01
2018-09-27T15:26:27.584Z,41.04
2018-09-27T15:28:56.784Z,40.97
2018-09-27T15:31:26.337Z,39.62
2018-09-27T15:33:55.113Z,39.49
2018-09-27T15:36:23.673Z,39.46
2018-09-27T15:38:53.171Z,39.88
2018-09-27T15:41:21.723Z,40.00
2018-09-27T15:43:50.228Z,39.66
2018-09-27T15:46:19.731Z,39.79
2018-09-27T15:48:48.169Z,40.57
2018-09-27T15:51:16.763Z,39.43
2018-09-27T15:53:45.858Z,39.86
2018-09-27T15:56:16.137Z,39.15
2018-09-27T15:58:44.725Z,38.47
2018-09-27T16:01:13.234Z,39.05
2018-09-27T16:03:41.832Z,37.68
2018-09-27T16:06:10.995Z,34.97
2018-09-27T16:08:40.059Z,32.42
2018-09-27T16:11:08.733Z,30.19
2018-09-27T16:13:37.940Z,29.16
2018-09-27T16:16:06.617Z,27.54
2018-09-27T16:18:36.407Z,26.46
2018-09-27T16:21:05.623Z,25.83
2018-09-27T16:23:34.168Z,25.15
2018-09-27T16:26:02.790Z,24.64
2018-09-27T16:28:31.241Z,24.20
2018-09-27T16:31:00.568Z,23.96
2018-09-27T16:35:56.461Z,23.43
2018-09-27T16:38:26.120Z,23.15
2018-09-27T16:40:54.914Z,22.86
2018-09-27T16:43:23.390Z,22.68
2018-09-27T16:45:51.938Z,22.54
2018-09-27T16:48:20.449Z,22.34
2018-09-27T16:50:49.039Z,22.21
2018-09-27T16:53:17.807Z,22.05
2018-09-27T16:55:47.303Z,21.89
2018-09-27T16:58:16.050Z,21.70
2018-09-27T17:00:45.418Z,21.60
2018-09-27T17:03:19.383Z,21.56
2018-09-27T17:05:49.748Z,21.46
2018-09-27T17:08:18.673Z,21.33
2018-09-27T17:10:47.307Z,21.27
2018-09-27T17:13:15.884Z,21.17
2018-09-27T17:15:44.783Z,21.04
2018-09-27T17:18:13.547Z,20.98
2018-09-27T17:20:43.865Z,20.88
2018-09-27T17:23:12.933Z,20.67
2018-09-27T17:25:42.552Z,20.57
2018-09-27T17:28:14.690Z,20.46
2018-09-27T17:30:45.617Z,20.46
2018-09-27T17:33:15.640Z,20.32
2018-09-27T17:35:45.215Z,20.27
2018-09-27T17:38:14.641Z,20.18
2018-09-27T17:40:43.818Z,20.04
2018-09-27T17:43:12.254Z,20.03
2018-09-27T17:45:40.999Z,19.94
2018-09-27T17:48:09.525Z,19.98
2018-09-27T17:50:40.585Z,19.88
2018-09-27T17:53:09.252Z,19.88
2018-09-27T17:55:37.857Z,19.80
2018-09-27T17:58:06.225Z,19.75
2018-09-27T18:00:35.262Z,19.71
2018-09-27T18:03:03.801Z,19.59
2018-09-27T18:05:32.467Z,19.51
2018-09-27T18:08:00.958Z,19.46
2018-09-27T18:10:29.466Z,19.39
2018-09-27T18:12:57.909Z,19.34
2018-09-27T18:15:26.455Z,19.29
2018-09-27T18:20:38.154Z,19.17
2018-09-27T18:23:06.736Z,19.15
2018-09-27T18:28:11.183Z,19.14
2018-09-27T18:30:39.623Z,19.13
2018-09-27T18:33:08.034Z,19.10
2018-09-27T18:35:36.515Z,19.14
2018-09-27T18:38:05.145Z,19.14
2018-09-27T18:40:33.390Z,19.06
2018-09-27T18:43:01.943Z,18.94
2018-09-27T18:45:30.359Z,18.89
2018-09-27T18:47:58.811Z,18.94
2018-09-27T18:50:27.242Z,18.87
2018-09-27T18:52:55.722Z,18.85
2018-09-27T18:55:25.042Z,18.80
2018-09-27T18:57:53.474Z,18.75
2018-09-27T19:00:21.880Z,18.71
2018-09-27T19:02:50.322Z,18.71
2018-09-27T19:05:18.759Z,18.67
2018-09-27T19:07:47.210Z,18.62
2018-09-27T19:10:15.630Z,18.62
2018-09-27T19:12:44.122Z,18.57
2018-09-27T19:15:12.602Z,18.50
2018-09-27T19:17:41.049Z,18.41
2018-09-27T19:20:09.475Z,18.40
2018-09-27T19:22:37.968Z,18.40
2018-09-27T19:25:06.491Z,18.44
2018-09-27T19:27:35.648Z,18.42
2018-09-27T19:30:04.246Z,18.39
2018-09-27T19:32:32.791Z,18.37
2018-09-27T19:35:02.930Z,18.34
2018-09-27T19:37:31.342Z,18.26
2018-09-27T19:39:59.806Z,18.25
2018-09-27T19:42:28.216Z,18.28
2018-09-27T19:44:56.662Z,18.21
2018-09-27T19:47:25.070Z,18.20
2018-09-27T19:49:53.517Z,18.10
2018-09-27T19:52:22.075Z,18.04
2018-09-27T19:54:50.513Z,18.06
2018-09-27T19:57:18.911Z,18.11
2018-09-27T19:59:47.365Z,18.10
2018-09-27T20:02:15.795Z,18.02
2018-09-27T20:04:44.270Z,17.97
2018-09-27T20:07:12.659Z,17.92
2018-09-27T20:09:41.226Z,17.92
2018-09-27T20:12:09.645Z,17.90
2018-09-27T20:14:38.069Z,17.86
2018-09-27T20:17:06.627Z,17.77
2018-09-27T20:19:35.066Z,17.73
2018-09-27T20:22:03.691Z,17.74
2018-09-27T20:24:32.094Z,17.74
2018-09-27T20:27:00.505Z,17.64
2018-09-27T20:29:28.909Z,17.64
2018-09-27T20:31:57.334Z,17.64
2018-09-27T20:34:25.778Z,17.57
2018-09-27T20:36:54.202Z,17.65
2018-09-27T20:39:22.629Z,17.62
2018-09-27T20:41:51.059Z,17.54
2018-09-27T20:44:19.526Z,17.48
2018-09-27T20:46:47.974Z,17.52
2018-09-27T20:49:16.384Z,17.46
2018-09-27T20:51:45.490Z,17.44
2018-09-27T20:54:13.934Z,17.44
2018-09-27T20:56:42.381Z,17.42
2018-09-27T20:59:10.785Z,17.39
2018-09-27T21:01:39.286Z,17.31
2018-09-27T21:04:08.072Z,17.30
2018-09-27T21:06:36.517Z,17.22
2018-09-27T21:16:05.111Z,17.10
2018-09-27T21:18:33.554Z,17.10
2018-09-27T21:21:02.628Z,17.06
2018-09-27T21:23:31.050Z,17.03
2018-09-27T21:25:59.445Z,17.01
2018-09-27T21:28:27.878Z,16.92
2018-09-27T21:30:56.278Z,16.93
2018-09-27T21:33:24.715Z,16.90
2018-09-27T21:35:53.114Z,16.81
2018-09-27T21:38:21.546Z,16.89
2018-09-27T21:40:49.969Z,16.88
2018-09-27T21:43:18.449Z,16.78
2018-09-27T21:45:46.825Z,16.70
2018-09-27T21:48:15.258Z,16.59
2018-09-27T21:50:44.010Z,16.54
2018-09-27T21:53:12.522Z,16.53
2018-09-27T21:55:40.934Z,16.61
2018-09-27T21:58:09.366Z,16.61
2018-09-27T22:00:37.793Z,16.64
2018-09-27T22:03:06.265Z,16.63
2018-09-27T22:05:34.684Z,16.62
2018-09-27T22:08:03.342Z,16.59
2018-09-27T22:10:31.733Z,16.55
2018-09-27T22:13:00.134Z,16.52
2018-09-27T22:15:28.562Z,16.43
2018-09-27T22:17:56.950Z,16.21
2018-09-27T22:20:25.405Z,16.05
2018-09-27T22:22:53.794Z,15.91
2018-09-27T22:25:22.218Z,15.71
2018-09-27T22:27:50.609Z,15.67
2018-09-27T22:30:19.033Z,15.55
2018-09-27T22:32:47.430Z,15.49
2018-09-27T22:35:15.858Z,15.43
2018-09-27T22:37:44.257Z,15.39
2018-09-27T22:40:12.749Z,15.40
2018-09-27T22:42:41.129Z,15.21
2018-09-27T22:45:09.569Z,15.13
2018-09-27T22:47:37.970Z,15.08
2018-09-27T22:50:06.425Z,15.06
2018-09-27T22:52:34.862Z,14.98
2018-09-27T22:55:03.710Z,14.94
2018-09-27T22:57:32.121Z,14.80
2018-09-27T23:00:00.562Z,14.74
2018-09-27T23:02:28.955Z,14.70
2018-09-27T23:04:57.578Z,14.70
2018-09-27T23:07:25.986Z,14.70
2018-09-27T23:09:54.471Z,14.73
2018-09-27T23:12:22.890Z,14.79
2018-09-27T23:14:51.289Z,14.80
2018-09-27T23:17:19.761Z,14.74
2018-09-27T23:19:48.186Z,14.82
2018-09-27T23:22:16.647Z,14.77
2018-09-27T23:24:45.078Z,14.72
2018-09-27T23:27:13.518Z,14.72
2018-09-27T23:29:41.925Z,14.81
2018-09-27T23:32:10.381Z,14.74
2018-09-27T23:34:38.791Z,14.72
2018-09-27T23:37:07.498Z,14.65
2018-09-27T23:39:35.908Z,14.65
2018-09-27T23:42:04.354Z,14.58
2018-09-27T23:44:32.743Z,14.57
2018-09-27T23:47:02.058Z,14.58
2018-09-27T23:49:30.442Z,14.64
2018-09-27T23:51:58.923Z,14.75
2018-09-27T23:54:27.318Z,14.79
2018-09-27T23:56:55.759Z,14.71
2018-09-27T23:59:24.151Z,14.65
